sensor_id;sensor_type;location;lat;lon;timestamp;temperature;humidity
63802;DHT22;49949;43.060;25.624;2023-09-19T00:00:30;13.20;99.90
63802;DHT22;49949;43.060;25.624;2023-09-19T00:02:57;13.20;99.90
63802;DHT22;49949;43.060;25.624;2023-09-19T00:05:25;13.20;99.90
63802;DHT22;49949;43.060;25.624;2023-09-19T00:07:54;13.20;99.90
63802;DHT22;49949;43.060;25.624;2023-09-19T00:10:24;13.20;99.90
63802;DHT22;49949;43.060;25.624;2023-09-19T00:12:56;13.20;99.90
63802;DHT22;49949;43.060;25.624;2023-09-19T00:15:23;13.20;99.90
63802;DHT22;49949;43.060;25.624;2023-09-19T00:17:48;13.10;99.90
63802;DHT22;49949;43.060;25.624;2023-09-19T00:20:17;13.00;99.90
63802;DHT22;49949;43.060;25.624;2023-09-19T00:22:44;13.00;99.90
63802;DHT22;49949;43.060;25.624;2023-09-19T00:25:10;13.00;99.90
63802;DHT22;49949;43.060;25.624;2023-09-19T00:27:40;13.00;99.90
63802;DHT22;49949;43.060;25.624;2023-09-19T00:30:12;13.00;99.90
63802;DHT22;49949;43.060;25.624;2023-09-19T00:32:50;13.00;99.90
63802;DHT22;49949;43.060;25.624;2023-09-19T00:35:23;13.00;99.90
63802;DHT22;49949;43.060;25.624;2023-09-19T00:37:52;13.00;99.90
63802;DHT22;49949;43.060;25.624;2023-09-19T00:40:18;12.80;99.90
63802;DHT22;49949;43.060;25.624;2023-09-19T00:42:44;12.80;99.90
63802;DHT22;49949;43.060;25.624;2023-09-19T00:45:12;12.80;99.90
63802;DHT22;49949;43.060;25.624;2023-09-19T00:47:50;12.80;99.90
63802;DHT22;49949;43.060;25.624;2023-09-19T00:50:18;12.70;99.90
63802;DHT22;49949;43.060;25.624;2023-09-19T00:52:46;12.70;99.90
63802;DHT22;49949;43.060;25.624;2023-09-19T00:55:14;12.70;99.90
63802;DHT22;49949;43.060;25.624;2023-09-19T00:57:41;12.70;99.90
63802;DHT22;49949;43.060;25.624;2023-09-19T01:00:08;12.70;99.90
63802;DHT22;49949;43.060;25.624;2023-09-19T01:02:41;12.70;99.90
63802;DHT22;49949;43.060;25.624;2023-09-19T01:05:09;12.70;99.90
63802;DHT22;49949;43.060;25.624;2023-09-19T01:07:35;12.70;99.90
63802;DHT22;49949;43.060;25.624;2023-09-19T01:10:06;12.70;99.90
63802;DHT22;49949;43.060;25.624;2023-09-19T01:13:08;12.70;99.90
63802;DHT22;49949;43.060;25.624;2023-09-19T01:18:36;12.60;99.90
63802;DHT22;49949;43.060;25.624;2023-09-19T01:32:25;12.50;99.90
63802;DHT22;49949;43.060;25.624;2023-09-19T01:34:54;12.40;99.90
63802;DHT22;49949;43.060;25.624;2023-09-19T01:37:22;12.30;99.90
63802;DHT22;49949;43.060;25.624;2023-09-19T01:40:02;12.30;99.90
63802;DHT22;49949;43.060;25.624;2023-09-19T01:42:51;12.40;99.90
63802;DHT22;49949;43.060;25.624;2023-09-19T01:48:04;12.30;99.90
63802;DHT22;49949;43.060;25.624;2023-09-19T01:50:38;12.30;99.90
63802;DHT22;49949;43.060;25.624;2023-09-19T01:53:21;12.30;99.90
63802;DHT22;49949;43.060;25.624;2023-09-19T01:55:49;12.20;99.90
63802;DHT22;49949;43.060;25.624;2023-09-19T01:58:41;12.20;99.90
63802;DHT22;49949;43.060;25.624;2023-09-19T02:01:11;12.10;99.90
63802;DHT22;49949;43.060;25.624;2023-09-19T02:03:39;12.10;99.90
63802;DHT22;49949;43.060;25.624;2023-09-19T02:06:06;12.10;99.90
63802;DHT22;49949;43.060;25.624;2023-09-19T02:08:37;12.10;99.90
63802;DHT22;49949;43.060;25.624;2023-09-19T02:11:03;12.10;99.90
63802;DHT22;49949;43.060;25.624;2023-09-19T02:13:29;12.10;99.90
63802;DHT22;49949;43.060;25.624;2023-09-19T02:15:57;12.00;99.90
63802;DHT22;49949;43.060;25.624;2023-09-19T02:18:23;12.00;99.90
63802;DHT22;49949;43.060;25.624;2023-09-19T02:20:48;12.00;99.90
63802;DHT22;49949;43.060;25.624;2023-09-19T02:23:14;12.00;99.90
63802;DHT22;49949;43.060;25.624;2023-09-19T02:25:41;12.00;99.90
63802;DHT22;49949;43.060;25.624;2023-09-19T02:28:09;12.00;99.90
63802;DHT22;49949;43.060;25.624;2023-09-19T02:30:35;12.00;99.90
63802;DHT22;49949;43.060;25.624;2023-09-19T02:33:02;11.90;99.90
63802;DHT22;49949;43.060;25.624;2023-09-19T02:35:28;11.90;99.90
63802;DHT22;49949;43.060;25.624;2023-09-19T02:37:58;11.90;99.90
63802;DHT22;49949;43.060;25.624;2023-09-19T02:40:24;11.90;99.90
63802;DHT22;49949;43.060;25.624;2023-09-19T02:42:54;11.90;99.90
63802;DHT22;49949;43.060;25.624;2023-09-19T02:45:20;11.90;99.90
63802;DHT22;49949;43.060;25.624;2023-09-19T02:47:47;11.80;99.90
63802;DHT22;49949;43.060;25.624;2023-09-19T02:50:13;11.70;99.90
63802;DHT22;49949;43.060;25.624;2023-09-19T02:52:45;11.70;99.90
63802;DHT22;49949;43.060;25.624;2023-09-19T02:55:15;11.70;99.90
63802;DHT22;49949;43.060;25.624;2023-09-19T02:57:53;11.70;99.90
63802;DHT22;49949;43.060;25.624;2023-09-19T03:00:22;11.70;99.90
63802;DHT22;49949;43.060;25.624;2023-09-19T03:02:55;11.70;99.90
63802;DHT22;49949;43.060;25.624;2023-09-19T03:05:22;11.70;99.90
63802;DHT22;49949;43.060;25.624;2023-09-19T03:07:49;11.60;99.90
63802;DHT22;49949;43.060;25.624;2023-09-19T03:10:21;11.50;99.90
63802;DHT22;49949;43.060;25.624;2023-09-19T03:12:47;11.50;99.90
63802;DHT22;49949;43.060;25.624;2023-09-19T03:15:13;11.50;99.90
63802;DHT22;49949;43.060;25.624;2023-09-19T03:17:43;11.40;99.90
63802;DHT22;49949;43.060;25.624;2023-09-19T03:20:10;11.40;99.90
63802;DHT22;49949;43.060;25.624;2023-09-19T03:22:38;11.40;99.90
63802;DHT22;49949;43.060;25.624;2023-09-19T03:25:06;11.40;99.90
63802;DHT22;49949;43.060;25.624;2023-09-19T03:27:34;11.40;99.90
63802;DHT22;49949;43.060;25.624;2023-09-19T03:30:00;11.40;99.90
63802;DHT22;49949;43.060;25.624;2023-09-19T03:32:26;11.40;99.90
63802;DHT22;49949;43.060;25.624;2023-09-19T03:34:52;11.50;99.90
63802;DHT22;49949;43.060;25.624;2023-09-19T03:37:17;11.40;99.90
63802;DHT22;49949;43.060;25.624;2023-09-19T03:39:43;11.40;99.90
63802;DHT22;49949;43.060;25.624;2023-09-19T03:42:09;11.40;99.90
63802;DHT22;49949;43.060;25.624;2023-09-19T03:44:35;11.30;99.90
63802;DHT22;49949;43.060;25.624;2023-09-19T03:47:00;11.30;99.90
63802;DHT22;49949;43.060;25.624;2023-09-19T03:49:26;11.30;99.90
63802;DHT22;49949;43.060;25.624;2023-09-19T03:51:52;11.30;99.90
63802;DHT22;49949;43.060;25.624;2023-09-19T03:54:18;11.20;99.90
63802;DHT22;49949;43.060;25.624;2023-09-19T03:56:45;11.20;99.90
63802;DHT22;49949;43.060;25.624;2023-09-19T03:59:11;11.10;99.90
63802;DHT22;49949;43.060;25.624;2023-09-19T04:01:37;11.10;99.90
63802;DHT22;49949;43.060;25.624;2023-09-19T04:04:03;11.20;99.90
63802;DHT22;49949;43.060;25.624;2023-09-19T04:06:35;11.20;99.90
63802;DHT22;49949;43.060;25.624;2023-09-19T04:09:04;11.20;99.90
63802;DHT22;49949;43.060;25.624;2023-09-19T04:11:33;11.20;99.90
63802;DHT22;49949;43.060;25.624;2023-09-19T04:13:59;11.10;99.90
63802;DHT22;49949;43.060;25.624;2023-09-19T04:16:24;11.10;99.90
63802;DHT22;49949;43.060;25.624;2023-09-19T04:18:50;11.10;99.90
63802;DHT22;49949;43.060;25.624;2023-09-19T04:21:16;11.10;99.90
63802;DHT22;49949;43.060;25.624;2023-09-19T04:23:42;11.10;99.90
63802;DHT22;49949;43.060;25.624;2023-09-19T04:26:08;11.10;99.90
63802;DHT22;49949;43.060;25.624;2023-09-19T04:28:34;11.10;99.90
63802;DHT22;49949;43.060;25.624;2023-09-19T04:31:03;11.10;99.90
63802;DHT22;49949;43.060;25.624;2023-09-19T04:33:29;11.00;99.90
63802;DHT22;49949;43.060;25.624;2023-09-19T04:35:55;11.00;99.90
63802;DHT22;49949;43.060;25.624;2023-09-19T04:38:21;11.00;99.90
63802;DHT22;49949;43.060;25.624;2023-09-19T04:40:48;11.10;99.90
63802;DHT22;49949;43.060;25.624;2023-09-19T04:43:13;11.20;99.90
63802;DHT22;49949;43.060;25.624;2023-09-19T04:45:41;11.30;99.90
63802;DHT22;49949;43.060;25.624;2023-09-19T04:48:07;11.40;99.90
63802;DHT22;49949;43.060;25.624;2023-09-19T04:50:33;11.50;99.90
63802;DHT22;49949;43.060;25.624;2023-09-19T04:52:59;11.50;99.90
63802;DHT22;49949;43.060;25.624;2023-09-19T04:55:26;11.60;99.90
63802;DHT22;49949;43.060;25.624;2023-09-19T04:57:52;11.60;99.90
63802;DHT22;49949;43.060;25.624;2023-09-19T05:00:19;11.60;99.90
63802;DHT22;49949;43.060;25.624;2023-09-19T05:02:53;11.70;99.90
63802;DHT22;49949;43.060;25.624;2023-09-19T05:05:21;11.80;99.90
63802;DHT22;49949;43.060;25.624;2023-09-19T05:07:48;11.80;99.90
63802;DHT22;49949;43.060;25.624;2023-09-19T05:10:14;11.90;99.90
63802;DHT22;49949;43.060;25.624;2023-09-19T05:12:41;12.00;99.90
63802;DHT22;49949;43.060;25.624;2023-09-19T05:15:08;12.10;99.90
63802;DHT22;49949;43.060;25.624;2023-09-19T05:17:35;12.20;99.90
63802;DHT22;49949;43.060;25.624;2023-09-19T05:20:02;12.30;99.90
63802;DHT22;49949;43.060;25.624;2023-09-19T05:22:32;12.40;99.90
63802;DHT22;49949;43.060;25.624;2023-09-19T05:25:00;12.40;99.90
63802;DHT22;49949;43.060;25.624;2023-09-19T05:27:26;12.50;99.90
63802;DHT22;49949;43.060;25.624;2023-09-19T05:29:51;12.50;99.90
63802;DHT22;49949;43.060;25.624;2023-09-19T05:32:19;12.60;99.90
63802;DHT22;49949;43.060;25.624;2023-09-19T05:34:45;12.70;99.90
63802;DHT22;49949;43.060;25.624;2023-09-19T05:37:12;12.70;99.90
63802;DHT22;49949;43.060;25.624;2023-09-19T05:39:39;12.80;99.90
63802;DHT22;49949;43.060;25.624;2023-09-19T05:42:05;12.90;99.90
63802;DHT22;49949;43.060;25.624;2023-09-19T05:44:30;13.00;99.90
63802;DHT22;49949;43.060;25.624;2023-09-19T05:46:58;13.10;99.90
63802;DHT22;49949;43.060;25.624;2023-09-19T05:49:24;13.20;99.90
63802;DHT22;49949;43.060;25.624;2023-09-19T05:51:50;13.30;99.90
63802;DHT22;49949;43.060;25.624;2023-09-19T05:54:19;13.40;99.90
63802;DHT22;49949;43.060;25.624;2023-09-19T05:56:45;13.60;99.90
63802;DHT22;49949;43.060;25.624;2023-09-19T05:59:12;13.70;99.90
63802;DHT22;49949;43.060;25.624;2023-09-19T06:01:42;13.80;99.90
63802;DHT22;49949;43.060;25.624;2023-09-19T06:04:07;14.00;99.90
63802;DHT22;49949;43.060;25.624;2023-09-19T06:06:33;14.10;99.90
63802;DHT22;49949;43.060;25.624;2023-09-19T06:09:06;14.30;99.90
63802;DHT22;49949;43.060;25.624;2023-09-19T06:11:36;14.50;99.90
63802;DHT22;49949;43.060;25.624;2023-09-19T06:14:03;14.70;99.90
63802;DHT22;49949;43.060;25.624;2023-09-19T06:16:31;14.90;99.90
63802;DHT22;49949;43.060;25.624;2023-09-19T06:18:57;15.10;99.90
63802;DHT22;49949;43.060;25.624;2023-09-19T06:21:25;15.40;99.90
63802;DHT22;49949;43.060;25.624;2023-09-19T06:23:53;15.60;99.90
63802;DHT22;49949;43.060;25.624;2023-09-19T06:26:18;15.80;99.90
63802;DHT22;49949;43.060;25.624;2023-09-19T06:28:44;16.00;99.90
63802;DHT22;49949;43.060;25.624;2023-09-19T06:31:10;16.20;99.90
63802;DHT22;49949;43.060;25.624;2023-09-19T06:33:37;16.30;99.90
63802;DHT22;49949;43.060;25.624;2023-09-19T06:36:06;16.50;99.90
63802;DHT22;49949;43.060;25.624;2023-09-19T06:38:32;16.70;99.90
63802;DHT22;49949;43.060;25.624;2023-09-19T06:41:02;16.90;99.90
63802;DHT22;49949;43.060;25.624;2023-09-19T06:43:33;17.20;99.90
63802;DHT22;49949;43.060;25.624;2023-09-19T06:46:00;17.30;99.90
63802;DHT22;49949;43.060;25.624;2023-09-19T06:48:26;17.60;99.90
63802;DHT22;49949;43.060;25.624;2023-09-19T06:50:56;17.80;99.90
63802;DHT22;49949;43.060;25.624;2023-09-19T06:53:24;18.00;99.90
63802;DHT22;49949;43.060;25.624;2023-09-19T06:55:51;18.20;99.90
63802;DHT22;49949;43.060;25.624;2023-09-19T06:58:16;18.40;99.90
63802;DHT22;49949;43.060;25.624;2023-09-19T07:00:42;18.60;99.90
63802;DHT22;49949;43.060;25.624;2023-09-19T07:03:08;18.80;99.90
63802;DHT22;49949;43.060;25.624;2023-09-19T07:05:37;19.00;99.90
63802;DHT22;49949;43.060;25.624;2023-09-19T07:08:05;19.20;99.90
63802;DHT22;49949;43.060;25.624;2023-09-19T07:10:36;19.40;99.90
63802;DHT22;49949;43.060;25.624;2023-09-19T07:13:04;19.60;99.90
63802;DHT22;49949;43.060;25.624;2023-09-19T07:15:31;19.70;99.90
63802;DHT22;49949;43.060;25.624;2023-09-19T07:17:59;19.90;99.90
63802;DHT22;49949;43.060;25.624;2023-09-19T07:20:26;20.00;99.90
63802;DHT22;49949;43.060;25.624;2023-09-19T07:22:53;20.20;99.90
63802;DHT22;49949;43.060;25.624;2023-09-19T07:25:20;20.40;99.90
63802;DHT22;49949;43.060;25.624;2023-09-19T07:27:46;20.60;99.90
63802;DHT22;49949;43.060;25.624;2023-09-19T07:30:12;20.90;99.90
63802;DHT22;49949;43.060;25.624;2023-09-19T07:32:39;21.20;99.90
63802;DHT22;49949;43.060;25.624;2023-09-19T07:35:06;21.40;99.90
63802;DHT22;49949;43.060;25.624;2023-09-19T07:37:32;21.70;99.90
63802;DHT22;49949;43.060;25.624;2023-09-19T07:40:02;21.90;99.90
63802;DHT22;49949;43.060;25.624;2023-09-19T07:42:33;22.20;99.90
63802;DHT22;49949;43.060;25.624;2023-09-19T07:45:01;22.50;99.90
63802;DHT22;49949;43.060;25.624;2023-09-19T07:47:26;22.60;99.90
63802;DHT22;49949;43.060;25.624;2023-09-19T07:49:53;22.80;99.90
63802;DHT22;49949;43.060;25.624;2023-09-19T07:52:20;23.20;99.90
63802;DHT22;49949;43.060;25.624;2023-09-19T07:54:48;23.80;99.90
63802;DHT22;49949;43.060;25.624;2023-09-19T07:57:15;24.40;97.10
63802;DHT22;49949;43.060;25.624;2023-09-19T07:59:41;24.10;95.50
63802;DHT22;49949;43.060;25.624;2023-09-19T08:02:08;24.50;94.80
63802;DHT22;49949;43.060;25.624;2023-09-19T08:04:35;24.60;96.00
63802;DHT22;49949;43.060;25.624;2023-09-19T08:07:01;24.60;96.20
63802;DHT22;49949;43.060;25.624;2023-09-19T08:09:29;24.70;97.30
63802;DHT22;49949;43.060;25.624;2023-09-19T08:11:59;24.70;94.10
63802;DHT22;49949;43.060;25.624;2023-09-19T08:14:28;24.70;95.70
63802;DHT22;49949;43.060;25.624;2023-09-19T08:16:58;24.90;93.90
63802;DHT22;49949;43.060;25.624;2023-09-19T08:19:24;25.00;90.90
63802;DHT22;49949;43.060;25.624;2023-09-19T08:21:55;25.10;91.60
63802;DHT22;49949;43.060;25.624;2023-09-19T08:24:27;25.30;88.10
63802;DHT22;49949;43.060;25.624;2023-09-19T08:26:57;25.40;88.10
63802;DHT22;49949;43.060;25.624;2023-09-19T08:29:26;25.60;85.60
63802;DHT22;49949;43.060;25.624;2023-09-19T08:31:57;25.80;83.80
63802;DHT22;49949;43.060;25.624;2023-09-19T08:34:26;25.90;83.30
63802;DHT22;49949;43.060;25.624;2023-09-19T08:36:52;26.10;80.60
63802;DHT22;49949;43.060;25.624;2023-09-19T08:39:25;26.20;80.20
63802;DHT22;49949;43.060;25.624;2023-09-19T08:41:58;26.40;77.00
63802;DHT22;49949;43.060;25.624;2023-09-19T08:44:27;26.60;77.20
63802;DHT22;49949;43.060;25.624;2023-09-19T08:47:05;26.70;74.90
63802;DHT22;49949;43.060;25.624;2023-09-19T08:52:27;26.80;74.30
63802;DHT22;49949;43.060;25.624;2023-09-19T08:54:58;27.00;71.00
63802;DHT22;49949;43.060;25.624;2023-09-19T08:57:29;27.00;70.40
63802;DHT22;49949;43.060;25.624;2023-09-19T08:59:59;27.00;68.10
63802;DHT22;49949;43.060;25.624;2023-09-19T09:02:26;27.10;67.40
63802;DHT22;49949;43.060;25.624;2023-09-19T09:04:53;27.30;66.00
63802;DHT22;49949;43.060;25.624;2023-09-19T09:07:20;27.40;66.20
63802;DHT22;49949;43.060;25.624;2023-09-19T09:09:47;27.40;66.40
63802;DHT22;49949;43.060;25.624;2023-09-19T09:12:14;27.30;63.00
63802;DHT22;49949;43.060;25.624;2023-09-19T09:14:45;27.30;64.90
63802;DHT22;49949;43.060;25.624;2023-09-19T09:17:13;27.30;67.60
63802;DHT22;49949;43.060;25.624;2023-09-19T09:19:38;27.70;68.70
63802;DHT22;49949;43.060;25.624;2023-09-19T09:22:08;28.20;67.40
63802;DHT22;49949;43.060;25.624;2023-09-19T09:24:34;28.00;66.80
63802;DHT22;49949;43.060;25.624;2023-09-19T09:27:04;27.80;66.50
63802;DHT22;49949;43.060;25.624;2023-09-19T09:29:44;27.90;66.90
63802;DHT22;49949;43.060;25.624;2023-09-19T09:35:07;28.40;67.40
63802;DHT22;49949;43.060;25.624;2023-09-19T09:37:36;28.90;64.90
63802;DHT22;49949;43.060;25.624;2023-09-19T09:40:04;29.30;60.40
63802;DHT22;49949;43.060;25.624;2023-09-19T09:42:50;29.30;58.80
63802;DHT22;49949;43.060;25.624;2023-09-19T09:45:24;28.90;59.10
63802;DHT22;49949;43.060;25.624;2023-09-19T09:48:00;28.80;60.40
63802;DHT22;49949;43.060;25.624;2023-09-19T09:50:36;29.00;62.10
63802;DHT22;49949;43.060;25.624;2023-09-19T09:53:26;29.00;61.40
63802;DHT22;49949;43.060;25.624;2023-09-19T09:56:01;28.90;60.40
63802;DHT22;49949;43.060;25.624;2023-09-19T09:58:31;28.60;63.60
63802;DHT22;49949;43.060;25.624;2023-09-19T10:00:58;28.20;63.20
63802;DHT22;49949;43.060;25.624;2023-09-19T10:03:38;28.10;65.50
63802;DHT22;49949;43.060;25.624;2023-09-19T10:06:10;28.10;66.00
63802;DHT22;49949;43.060;25.624;2023-09-19T10:09:05;28.20;63.60
63802;DHT22;49949;43.060;25.624;2023-09-19T10:11:42;28.40;63.70
63802;DHT22;49949;43.060;25.624;2023-09-19T10:14:17;28.60;62.70
63802;DHT22;49949;43.060;25.624;2023-09-19T10:16:47;28.80;60.50
63802;DHT22;49949;43.060;25.624;2023-09-19T10:19:22;28.60;62.30
63802;DHT22;49949;43.060;25.624;2023-09-19T10:21:50;28.40;62.90
63802;DHT22;49949;43.060;25.624;2023-09-19T10:24:19;28.40;62.60
63802;DHT22;49949;43.060;25.624;2023-09-19T10:26:46;28.50;65.00
63802;DHT22;49949;43.060;25.624;2023-09-19T10:29:16;28.50;64.60
63802;DHT22;49949;43.060;25.624;2023-09-19T10:31:44;28.60;64.70
63802;DHT22;49949;43.060;25.624;2023-09-19T10:34:14;28.40;63.90
63802;DHT22;49949;43.060;25.624;2023-09-19T10:36:44;28.20;64.90
63802;DHT22;49949;43.060;25.624;2023-09-19T10:39:11;27.90;65.80
63802;DHT22;49949;43.060;25.624;2023-09-19T10:41:39;27.40;66.30
63802;DHT22;49949;43.060;25.624;2023-09-19T10:44:05;27.40;67.90
63802;DHT22;49949;43.060;25.624;2023-09-19T10:46:34;27.30;68.30
63802;DHT22;49949;43.060;25.624;2023-09-19T10:49:02;27.40;69.30
63802;DHT22;49949;43.060;25.624;2023-09-19T10:51:39;27.60;66.80
63802;DHT22;49949;43.060;25.624;2023-09-19T10:54:12;27.80;67.30
63802;DHT22;49949;43.060;25.624;2023-09-19T10:56:43;28.20;67.40
63802;DHT22;49949;43.060;25.624;2023-09-19T10:59:16;28.10;64.00
63802;DHT22;49949;43.060;25.624;2023-09-19T11:01:56;28.10;62.90
63802;DHT22;49949;43.060;25.624;2023-09-19T11:09:54;28.30;62.60
63802;DHT22;49949;43.060;25.624;2023-09-19T11:14:56;28.40;61.10
63802;DHT22;49949;43.060;25.624;2023-09-19T11:17:34;28.20;60.00
63802;DHT22;49949;43.060;25.624;2023-09-19T11:30:33;28.20;62.70
63802;DHT22;49949;43.060;25.624;2023-09-19T11:33:27;28.30;60.60
63802;DHT22;49949;43.060;25.624;2023-09-19T11:43:47;28.40;63.20
63802;DHT22;49949;43.060;25.624;2023-09-19T11:46:13;28.50;61.90
63802;DHT22;49949;43.060;25.624;2023-09-19T11:48:43;28.60;62.50
63802;DHT22;49949;43.060;25.624;2023-09-19T11:51:25;28.60;62.00
63802;DHT22;49949;43.060;25.624;2023-09-19T11:53:56;28.50;62.30
63802;DHT22;49949;43.060;25.624;2023-09-19T11:56:26;28.40;62.00
63802;DHT22;49949;43.060;25.624;2023-09-19T11:58:57;28.40;61.50
63802;DHT22;49949;43.060;25.624;2023-09-19T12:01:32;28.70;60.70
63802;DHT22;49949;43.060;25.624;2023-09-19T12:04:02;28.50;62.40
63802;DHT22;49949;43.060;25.624;2023-09-19T12:06:30;28.70;61.40
63802;DHT22;49949;43.060;25.624;2023-09-19T12:08:57;28.80;61.80
63802;DHT22;49949;43.060;25.624;2023-09-19T12:11:29;28.80;59.60
63802;DHT22;49949;43.060;25.624;2023-09-19T12:13:56;28.80;61.10
63802;DHT22;49949;43.060;25.624;2023-09-19T12:16:25;28.60;61.80
63802;DHT22;49949;43.060;25.624;2023-09-19T12:18:56;28.60;61.10
63802;DHT22;49949;43.060;25.624;2023-09-19T12:21:27;28.30;62.30
63802;DHT22;49949;43.060;25.624;2023-09-19T12:26:30;28.20;63.20
63802;DHT22;49949;43.060;25.624;2023-09-19T12:29:03;28.50;63.70
63802;DHT22;49949;43.060;25.624;2023-09-19T12:31:30;28.80;61.40
63802;DHT22;49949;43.060;25.624;2023-09-19T12:34:02;28.80;61.40
63802;DHT22;49949;43.060;25.624;2023-09-19T12:36:27;28.70;60.60
63802;DHT22;49949;43.060;25.624;2023-09-19T12:38:56;28.80;60.60
63802;DHT22;49949;43.060;25.624;2023-09-19T12:41:25;28.60;60.80
63802;DHT22;49949;43.060;25.624;2023-09-19T12:43:53;28.30;62.70
63802;DHT22;49949;43.060;25.624;2023-09-19T12:46:22;28.40;62.70
63802;DHT22;49949;43.060;25.624;2023-09-19T12:51:48;28.60;62.50
63802;DHT22;49949;43.060;25.624;2023-09-19T12:54:14;28.70;60.90
63802;DHT22;49949;43.060;25.624;2023-09-19T12:56:43;28.60;61.40
63802;DHT22;49949;43.060;25.624;2023-09-19T12:59:12;28.70;62.00
63802;DHT22;49949;43.060;25.624;2023-09-19T13:01:40;28.70;59.80
63802;DHT22;49949;43.060;25.624;2023-09-19T13:06:52;28.60;60.10
63802;DHT22;49949;43.060;25.624;2023-09-19T13:09:19;28.50;59.10
63802;DHT22;49949;43.060;25.624;2023-09-19T13:11:46;28.70;60.40
63802;DHT22;49949;43.060;25.624;2023-09-19T13:16:58;29.10;59.90
63802;DHT22;49949;43.060;25.624;2023-09-19T13:19:57;29.30;58.60
63802;DHT22;49949;43.060;25.624;2023-09-19T13:22:42;29.20;58.80
63802;DHT22;49949;43.060;25.624;2023-09-19T13:25:11;29.00;58.90
63802;DHT22;49949;43.060;25.624;2023-09-19T13:27:52;28.90;58.00
63802;DHT22;49949;43.060;25.624;2023-09-19T13:30:20;28.80;58.40
63802;DHT22;49949;43.060;25.624;2023-09-19T13:32:46;28.80;58.40
63802;DHT22;49949;43.060;25.624;2023-09-19T13:35:15;28.70;58.00
63802;DHT22;49949;43.060;25.624;2023-09-19T13:37:42;28.70;58.30
63802;DHT22;49949;43.060;25.624;2023-09-19T13:40:09;28.80;58.80
63802;DHT22;49949;43.060;25.624;2023-09-19T13:42:36;28.80;58.50
63802;DHT22;49949;43.060;25.624;2023-09-19T13:45:05;28.90;58.30
63802;DHT22;49949;43.060;25.624;2023-09-19T13:47:31;28.70;57.80
63802;DHT22;49949;43.060;25.624;2023-09-19T13:49:58;28.60;57.50
63802;DHT22;49949;43.060;25.624;2023-09-19T13:52:24;28.70;58.00
63802;DHT22;49949;43.060;25.624;2023-09-19T13:54:54;28.90;56.60
63802;DHT22;49949;43.060;25.624;2023-09-19T13:57:22;28.90;57.80
63802;DHT22;49949;43.060;25.624;2023-09-19T13:59:48;28.80;56.00
63802;DHT22;49949;43.060;25.624;2023-09-19T14:02:13;28.70;55.50
63802;DHT22;49949;43.060;25.624;2023-09-19T14:04:40;28.70;55.50
63802;DHT22;49949;43.060;25.624;2023-09-19T14:07:06;28.70;55.40
63802;DHT22;49949;43.060;25.624;2023-09-19T14:09:33;28.60;56.00
63802;DHT22;49949;43.060;25.624;2023-09-19T14:11:59;28.60;55.00
63802;DHT22;49949;43.060;25.624;2023-09-19T14:14:25;28.50;53.50
63802;DHT22;49949;43.060;25.624;2023-09-19T14:16:50;28.40;55.00
63802;DHT22;49949;43.060;25.624;2023-09-19T14:19:20;28.40;54.20
63802;DHT22;49949;43.060;25.624;2023-09-19T14:21:46;28.40;53.20
63802;DHT22;49949;43.060;25.624;2023-09-19T14:24:16;28.30;52.80
63802;DHT22;49949;43.060;25.624;2023-09-19T14:26:43;28.30;53.20
63802;DHT22;49949;43.060;25.624;2023-09-19T14:29:08;28.40;53.00
63802;DHT22;49949;43.060;25.624;2023-09-19T14:31:37;28.40;53.50
63802;DHT22;49949;43.060;25.624;2023-09-19T14:34:06;28.20;53.00
63802;DHT22;49949;43.060;25.624;2023-09-19T14:36:32;28.20;53.40
63802;DHT22;49949;43.060;25.624;2023-09-19T14:38:59;28.20;53.00
63802;DHT22;49949;43.060;25.624;2023-09-19T14:41:24;28.10;55.00
63802;DHT22;49949;43.060;25.624;2023-09-19T14:43:54;28.20;53.70
63802;DHT22;49949;43.060;25.624;2023-09-19T14:46:21;28.10;61.00
63802;DHT22;49949;43.060;25.624;2023-09-19T14:48:52;28.00;60.80
63802;DHT22;49949;43.060;25.624;2023-09-19T14:51:18;27.90;60.90
63802;DHT22;49949;43.060;25.624;2023-09-19T14:53:47;27.80;61.70
63802;DHT22;49949;43.060;25.624;2023-09-19T14:56:13;27.60;63.50
63802;DHT22;49949;43.060;25.624;2023-09-19T14:58:43;27.50;63.90
63802;DHT22;49949;43.060;25.624;2023-09-19T15:01:11;27.30;63.70
63802;DHT22;49949;43.060;25.624;2023-09-19T15:03:38;27.30;64.60
63802;DHT22;49949;43.060;25.624;2023-09-19T15:06:10;27.30;65.30
63802;DHT22;49949;43.060;25.624;2023-09-19T15:08:40;27.30;65.50
63802;DHT22;49949;43.060;25.624;2023-09-19T15:11:09;27.30;65.40
63802;DHT22;49949;43.060;25.624;2023-09-19T15:13:36;27.40;65.60
63802;DHT22;49949;43.060;25.624;2023-09-19T15:16:03;27.50;64.60
63802;DHT22;49949;43.060;25.624;2023-09-19T15:18:30;27.50;65.10
63802;DHT22;49949;43.060;25.624;2023-09-19T15:20:56;27.40;70.60
63802;DHT22;49949;43.060;25.624;2023-09-19T15:23:22;27.30;72.30
63802;DHT22;49949;43.060;25.624;2023-09-19T15:25:51;27.30;72.10
63802;DHT22;49949;43.060;25.624;2023-09-19T15:28:17;27.30;68.80
63802;DHT22;49949;43.060;25.624;2023-09-19T15:30:43;27.30;69.00
63802;DHT22;49949;43.060;25.624;2023-09-19T15:33:09;27.10;69.20
63802;DHT22;49949;43.060;25.624;2023-09-19T15:35:35;27.00;70.20
63802;DHT22;49949;43.060;25.624;2023-09-19T15:38:03;27.00;74.60
63802;DHT22;49949;43.060;25.624;2023-09-19T15:40:29;26.90;73.20
63802;DHT22;49949;43.060;25.624;2023-09-19T15:42:55;26.70;71.30
63802;DHT22;49949;43.060;25.624;2023-09-19T15:45:24;26.60;71.90
63802;DHT22;49949;43.060;25.624;2023-09-19T15:47:51;26.40;71.70
63802;DHT22;49949;43.060;25.624;2023-09-19T15:50:17;26.20;72.30
63802;DHT22;49949;43.060;25.624;2023-09-19T15:52:43;26.20;73.70
63802;DHT22;49949;43.060;25.624;2023-09-19T15:55:09;26.00;73.80
63802;DHT22;49949;43.060;25.624;2023-09-19T15:57:38;25.90;76.60
63802;DHT22;49949;43.060;25.624;2023-09-19T16:00:05;25.80;79.70
63802;DHT22;49949;43.060;25.624;2023-09-19T16:02:36;25.70;78.60
63802;DHT22;49949;43.060;25.624;2023-09-19T16:05:02;25.50;77.40
63802;DHT22;49949;43.060;25.624;2023-09-19T16:07:32;25.40;75.50
63802;DHT22;49949;43.060;25.624;2023-09-19T16:09:59;25.30;75.80
63802;DHT22;49949;43.060;25.624;2023-09-19T16:12:25;25.30;75.50
63802;DHT22;49949;43.060;25.624;2023-09-19T16:14:51;25.20;73.60
63802;DHT22;49949;43.060;25.624;2023-09-19T16:17:17;25.20;74.10
63802;DHT22;49949;43.060;25.624;2023-09-19T16:19:43;25.10;74.40
63802;DHT22;49949;43.060;25.624;2023-09-19T16:22:10;25.00;75.60
63802;DHT22;49949;43.060;25.624;2023-09-19T16:24:35;24.80;80.60